Terminal Aerodrome Forecast
Issued by NWS

Home | Current Version | Previous Version | Text Only | Print | Product List | Glossary Off
Versions: 1 2 3 4 5 6 7 8 9 10 11 12 13 14 15 16

833
FTUS43 KMPX 251942 AAA
TAFAXN
TAF AMD
KAXN 251942Z 2520/2618 25014G21KT P6SM SCT025 OVC070
      TEMPO 2520/2524 BKN025
     FM260200 25005KT 6SM -SHSN OVC030
     FM260400 21004KT 6SM -SHSN BKN020
     FM261000 24006KT P6SM BKN015
     FM261500 29010KT P6SM BKN035=

USA.gov is the U.S. government's official web portal to all federal, state and local government web resources and services.